sensor_id;sensor_type;location;lat;lon;timestamp;P1;durP1;ratioP1;P2;durP2;ratioP2
70148;SDS011;57514;52.164;5.282;2022-10-22T00:01:00;8.20;;;3.90;;
70148;SDS011;57514;52.164;5.282;2022-10-22T00:03:28;12.93;;;4.68;;
70148;SDS011;57514;52.164;5.282;2022-10-22T00:05:55;13.35;;;4.65;;
70148;SDS011;57514;52.164;5.282;2022-10-22T00:08:25;10.82;;;3.60;;
70148;SDS011;57514;52.164;5.282;2022-10-22T00:10:52;11.48;;;4.10;;
70148;SDS011;57514;52.164;5.282;2022-10-22T00:13:19;10.95;;;4.60;;
70148;SDS011;57514;52.164;5.282;2022-10-22T00:15:46;9.85;;;4.20;;
70148;SDS011;57514;52.164;5.282;2022-10-22T00:18:14;10.60;;;3.85;;
70148;SDS011;57514;52.164;5.282;2022-10-22T00:20:41;11.50;;;4.15;;
70148;SDS011;57514;52.164;5.282;2022-10-22T00:23:08;12.57;;;3.95;;
70148;SDS011;57514;52.164;5.282;2022-10-22T00:25:35;11.43;;;4.70;;
70148;SDS011;57514;52.164;5.282;2022-10-22T00:28:03;9.63;;;4.00;;
70148;SDS011;57514;52.164;5.282;2022-10-22T00:30:30;11.68;;;4.63;;
70148;SDS011;57514;52.164;5.282;2022-10-22T00:32:57;10.55;;;4.30;;
70148;SDS011;57514;52.164;5.282;2022-10-22T00:35:24;11.60;;;4.70;;
70148;SDS011;57514;52.164;5.282;2022-10-22T00:37:51;13.98;;;4.22;;
70148;SDS011;57514;52.164;5.282;2022-10-22T00:40:18;9.98;;;4.35;;
70148;SDS011;57514;52.164;5.282;2022-10-22T00:42:45;13.70;;;3.90;;
70148;SDS011;57514;52.164;5.282;2022-10-22T00:45:16;9.85;;;3.33;;
70148;SDS011;57514;52.164;5.282;2022-10-22T00:47:45;13.70;;;4.47;;
70148;SDS011;57514;52.164;5.282;2022-10-22T00:50:29;12.57;;;4.13;;
70148;SDS011;57514;52.164;5.282;2022-10-22T00:52:57;12.40;;;4.25;;
70148;SDS011;57514;52.164;5.282;2022-10-22T00:55:25;11.75;;;4.18;;
70148;SDS011;57514;52.164;5.282;2022-10-22T00:57:53;12.45;;;5.03;;
70148;SDS011;57514;52.164;5.282;2022-10-22T01:00:21;10.05;;;4.78;;
70148;SDS011;57514;52.164;5.282;2022-10-22T01:02:49;9.13;;;3.97;;
70148;SDS011;57514;52.164;5.282;2022-10-22T01:05:17;9.95;;;4.30;;
70148;SDS011;57514;52.164;5.282;2022-10-22T01:07:46;10.00;;;3.97;;
70148;SDS011;57514;52.164;5.282;2022-10-22T01:12:53;11.70;;;3.90;;
70148;SDS011;57514;52.164;5.282;2022-10-22T01:18:03;10.35;;;3.22;;
70148;SDS011;57514;52.164;5.282;2022-10-22T01:28:17;11.65;;;4.43;;
70148;SDS011;57514;52.164;5.282;2022-10-22T01:30:48;11.23;;;4.28;;
70148;SDS011;57514;52.164;5.282;2022-10-22T01:33:18;9.32;;;3.83;;
70148;SDS011;57514;52.164;5.282;2022-10-22T01:35:47;12.25;;;3.92;;
70148;SDS011;57514;52.164;5.282;2022-10-22T01:38:16;10.15;;;3.70;;
70148;SDS011;57514;52.164;5.282;2022-10-22T01:40:45;13.48;;;3.53;;
70148;SDS011;57514;52.164;5.282;2022-10-22T01:43:12;10.50;;;3.85;;
70148;SDS011;57514;52.164;5.282;2022-10-22T01:45:44;11.40;;;3.60;;
70148;SDS011;57514;52.164;5.282;2022-10-22T01:48:16;12.45;;;3.58;;
70148;SDS011;57514;52.164;5.282;2022-10-22T01:56:16;9.93;;;3.38;;
70148;SDS011;57514;52.164;5.282;2022-10-22T01:59:09;11.55;;;3.70;;
70148;SDS011;57514;52.164;5.282;2022-10-22T02:06:39;11.43;;;3.60;;
70148;SDS011;57514;52.164;5.282;2022-10-22T02:09:09;11.93;;;3.53;;
70148;SDS011;57514;52.164;5.282;2022-10-22T02:11:37;11.25;;;3.65;;
70148;SDS011;57514;52.164;5.282;2022-10-22T02:14:04;12.05;;;4.65;;
70148;SDS011;57514;52.164;5.282;2022-10-22T02:16:34;8.77;;;3.50;;
70148;SDS011;57514;52.164;5.282;2022-10-22T02:19:05;15.18;;;3.60;;
70148;SDS011;57514;52.164;5.282;2022-10-22T02:21:35;7.45;;;3.33;;
70148;SDS011;57514;52.164;5.282;2022-10-22T02:24:02;9.88;;;2.92;;
70148;SDS011;57514;52.164;5.282;2022-10-22T02:26:34;10.77;;;3.55;;
70148;SDS011;57514;52.164;5.282;2022-10-22T02:29:26;9.23;;;3.20;;
70148;SDS011;57514;52.164;5.282;2022-10-22T02:31:54;10.30;;;3.33;;
70148;SDS011;57514;52.164;5.282;2022-10-22T02:34:22;9.35;;;3.38;;
70148;SDS011;57514;52.164;5.282;2022-10-22T02:36:51;13.25;;;4.05;;
70148;SDS011;57514;52.164;5.282;2022-10-22T02:39:18;11.15;;;3.97;;
70148;SDS011;57514;52.164;5.282;2022-10-22T02:41:46;8.18;;;3.10;;
70148;SDS011;57514;52.164;5.282;2022-10-22T02:44:14;10.15;;;3.35;;
70148;SDS011;57514;52.164;5.282;2022-10-22T02:46:41;9.48;;;3.22;;
70148;SDS011;57514;52.164;5.282;2022-10-22T02:49:08;8.73;;;3.47;;
70148;SDS011;57514;52.164;5.282;2022-10-22T02:51:35;9.45;;;3.20;;
70148;SDS011;57514;52.164;5.282;2022-10-22T02:54:02;11.35;;;3.08;;
70148;SDS011;57514;52.164;5.282;2022-10-22T02:56:30;15.38;;;4.25;;
70148;SDS011;57514;52.164;5.282;2022-10-22T02:58:57;9.77;;;3.47;;
70148;SDS011;57514;52.164;5.282;2022-10-22T03:01:24;11.20;;;3.95;;
70148;SDS011;57514;52.164;5.282;2022-10-22T03:03:51;11.13;;;3.75;;
70148;SDS011;57514;52.164;5.282;2022-10-22T03:06:19;10.02;;;4.38;;
70148;SDS011;57514;52.164;5.282;2022-10-22T03:08:46;11.93;;;3.70;;
70148;SDS011;57514;52.164;5.282;2022-10-22T03:11:13;12.43;;;4.22;;
70148;SDS011;57514;52.164;5.282;2022-10-22T03:13:40;9.35;;;3.33;;
70148;SDS011;57514;52.164;5.282;2022-10-22T03:16:07;10.10;;;4.40;;
70148;SDS011;57514;52.164;5.282;2022-10-22T03:18:34;13.80;;;4.70;;
70148;SDS011;57514;52.164;5.282;2022-10-22T03:21:12;10.57;;;4.60;;
70148;SDS011;57514;52.164;5.282;2022-10-22T03:23:43;10.38;;;4.28;;
70148;SDS011;57514;52.164;5.282;2022-10-22T03:26:11;10.25;;;4.35;;
70148;SDS011;57514;52.164;5.282;2022-10-22T03:28:39;11.13;;;4.45;;
70148;SDS011;57514;52.164;5.282;2022-10-22T03:31:07;11.00;;;4.18;;
70148;SDS011;57514;52.164;5.282;2022-10-22T03:33:34;11.63;;;4.63;;
70148;SDS011;57514;52.164;5.282;2022-10-22T03:36:01;13.55;;;4.32;;
70148;SDS011;57514;52.164;5.282;2022-10-22T03:38:28;13.27;;;4.47;;
70148;SDS011;57514;52.164;5.282;2022-10-22T03:40:55;15.52;;;4.68;;
70148;SDS011;57514;52.164;5.282;2022-10-22T03:43:23;11.60;;;3.60;;
70148;SDS011;57514;52.164;5.282;2022-10-22T03:45:50;13.55;;;4.00;;
70148;SDS011;57514;52.164;5.282;2022-10-22T03:48:17;14.35;;;4.90;;
70148;SDS011;57514;52.164;5.282;2022-10-22T03:50:45;7.65;;;3.03;;
70148;SDS011;57514;52.164;5.282;2022-10-22T03:53:12;13.63;;;4.80;;
70148;SDS011;57514;52.164;5.282;2022-10-22T03:55:39;11.95;;;4.13;;
70148;SDS011;57514;52.164;5.282;2022-10-22T03:58:06;11.13;;;4.90;;
70148;SDS011;57514;52.164;5.282;2022-10-22T04:00:34;17.42;;;4.97;;
70148;SDS011;57514;52.164;5.282;2022-10-22T04:03:01;14.68;;;4.93;;
70148;SDS011;57514;52.164;5.282;2022-10-22T04:05:28;10.55;;;4.00;;
70148;SDS011;57514;52.164;5.282;2022-10-22T04:07:57;13.05;;;4.75;;
70148;SDS011;57514;52.164;5.282;2022-10-22T04:10:24;9.50;;;4.35;;
70148;SDS011;57514;52.164;5.282;2022-10-22T04:12:52;14.55;;;4.60;;
70148;SDS011;57514;52.164;5.282;2022-10-22T04:15:19;16.33;;;5.05;;
70148;SDS011;57514;52.164;5.282;2022-10-22T04:17:46;10.02;;;4.10;;
70148;SDS011;57514;52.164;5.282;2022-10-22T04:20:13;12.90;;;3.65;;
70148;SDS011;57514;52.164;5.282;2022-10-22T04:22:40;12.15;;;4.38;;
70148;SDS011;57514;52.164;5.282;2022-10-22T04:25:07;13.95;;;5.30;;
70148;SDS011;57514;52.164;5.282;2022-10-22T04:27:35;15.60;;;4.65;;
70148;SDS011;57514;52.164;5.282;2022-10-22T04:30:03;9.07;;;4.82;;
70148;SDS011;57514;52.164;5.282;2022-10-22T04:32:31;11.32;;;4.65;;
70148;SDS011;57514;52.164;5.282;2022-10-22T04:34:59;11.35;;;4.05;;
70148;SDS011;57514;52.164;5.282;2022-10-22T04:37:26;13.73;;;4.93;;
70148;SDS011;57514;52.164;5.282;2022-10-22T04:39:53;7.20;;;3.97;;
70148;SDS011;57514;52.164;5.282;2022-10-22T04:44:50;14.23;;;4.85;;
70148;SDS011;57514;52.164;5.282;2022-10-22T04:47:17;18.08;;;5.22;;
70148;SDS011;57514;52.164;5.282;2022-10-22T04:49:44;11.40;;;4.57;;
70148;SDS011;57514;52.164;5.282;2022-10-22T04:52:11;13.35;;;4.68;;
70148;SDS011;57514;52.164;5.282;2022-10-22T04:54:39;12.10;;;4.28;;
70148;SDS011;57514;52.164;5.282;2022-10-22T04:57:06;9.05;;;4.53;;
70148;SDS011;57514;52.164;5.282;2022-10-22T04:59:33;10.13;;;4.18;;
70148;SDS011;57514;52.164;5.282;2022-10-22T05:02:00;11.63;;;4.05;;
70148;SDS011;57514;52.164;5.282;2022-10-22T05:04:27;14.38;;;5.07;;
70148;SDS011;57514;52.164;5.282;2022-10-22T05:06:54;12.90;;;4.50;;
70148;SDS011;57514;52.164;5.282;2022-10-22T05:09:21;13.63;;;4.93;;
70148;SDS011;57514;52.164;5.282;2022-10-22T05:11:49;11.93;;;4.38;;
70148;SDS011;57514;52.164;5.282;2022-10-22T05:14:21;12.88;;;4.68;;
70148;SDS011;57514;52.164;5.282;2022-10-22T05:16:48;13.95;;;4.25;;
70148;SDS011;57514;52.164;5.282;2022-10-22T05:19:20;13.52;;;3.90;;
70148;SDS011;57514;52.164;5.282;2022-10-22T05:21:52;16.30;;;4.72;;
70148;SDS011;57514;52.164;5.282;2022-10-22T05:24:19;13.65;;;4.47;;
70148;SDS011;57514;52.164;5.282;2022-10-22T05:26:50;12.65;;;4.57;;
70148;SDS011;57514;52.164;5.282;2022-10-22T05:29:18;12.57;;;4.63;;
70148;SDS011;57514;52.164;5.282;2022-10-22T05:31:45;9.63;;;3.75;;
70148;SDS011;57514;52.164;5.282;2022-10-22T05:34:12;11.27;;;4.03;;
70148;SDS011;57514;52.164;5.282;2022-10-22T05:36:40;12.48;;;4.75;;
70148;SDS011;57514;52.164;5.282;2022-10-22T05:39:07;14.50;;;5.20;;
70148;SDS011;57514;52.164;5.282;2022-10-22T05:41:34;12.43;;;4.43;;
70148;SDS011;57514;52.164;5.282;2022-10-22T05:44:02;8.88;;;4.13;;
70148;SDS011;57514;52.164;5.282;2022-10-22T05:46:31;10.95;;;3.65;;
70148;SDS011;57514;52.164;5.282;2022-10-22T05:49:00;11.43;;;4.15;;
70148;SDS011;57514;52.164;5.282;2022-10-22T05:51:28;8.52;;;3.63;;
70148;SDS011;57514;52.164;5.282;2022-10-22T05:53:57;17.17;;;4.63;;
70148;SDS011;57514;52.164;5.282;2022-10-22T05:56:25;9.88;;;4.20;;
70148;SDS011;57514;52.164;5.282;2022-10-22T05:58:52;12.48;;;4.38;;
70148;SDS011;57514;52.164;5.282;2022-10-22T06:01:24;11.82;;;4.68;;
70148;SDS011;57514;52.164;5.282;2022-10-22T06:03:53;15.07;;;3.90;;
70148;SDS011;57514;52.164;5.282;2022-10-22T06:06:29;12.27;;;3.67;;
70148;SDS011;57514;52.164;5.282;2022-10-22T06:09:00;13.98;;;4.60;;
70148;SDS011;57514;52.164;5.282;2022-10-22T06:11:28;12.90;;;4.80;;
70148;SDS011;57514;52.164;5.282;2022-10-22T06:14:00;11.75;;;4.15;;
70148;SDS011;57514;52.164;5.282;2022-10-22T06:16:27;14.70;;;4.68;;
70148;SDS011;57514;52.164;5.282;2022-10-22T06:18:54;11.35;;;4.20;;
70148;SDS011;57514;52.164;5.282;2022-10-22T06:21:22;12.25;;;4.38;;
70148;SDS011;57514;52.164;5.282;2022-10-22T06:23:49;11.75;;;4.53;;
70148;SDS011;57514;52.164;5.282;2022-10-22T06:26:16;10.65;;;4.28;;
70148;SDS011;57514;52.164;5.282;2022-10-22T06:28:43;14.07;;;4.60;;
70148;SDS011;57514;52.164;5.282;2022-10-22T06:31:11;11.68;;;3.47;;
70148;SDS011;57514;52.164;5.282;2022-10-22T06:33:39;15.20;;;4.15;;
70148;SDS011;57514;52.164;5.282;2022-10-22T06:36:10;17.70;;;3.92;;
70148;SDS011;57514;52.164;5.282;2022-10-22T06:38:38;10.32;;;3.92;;
70148;SDS011;57514;52.164;5.282;2022-10-22T06:41:07;13.80;;;4.00;;
70148;SDS011;57514;52.164;5.282;2022-10-22T06:43:34;10.68;;;3.40;;
70148;SDS011;57514;52.164;5.282;2022-10-22T06:46:02;12.55;;;4.22;;
70148;SDS011;57514;52.164;5.282;2022-10-22T06:48:30;10.68;;;4.25;;
70148;SDS011;57514;52.164;5.282;2022-10-22T06:51:00;11.25;;;4.10;;
70148;SDS011;57514;52.164;5.282;2022-10-22T06:53:27;10.20;;;4.07;;
70148;SDS011;57514;52.164;5.282;2022-10-22T06:55:54;12.32;;;3.97;;
70148;SDS011;57514;52.164;5.282;2022-10-22T06:58:21;10.35;;;3.10;;
70148;SDS011;57514;52.164;5.282;2022-10-22T07:00:48;12.05;;;4.22;;
70148;SDS011;57514;52.164;5.282;2022-10-22T07:03:16;12.50;;;3.40;;
70148;SDS011;57514;52.164;5.282;2022-10-22T07:05:43;9.20;;;3.08;;
70148;SDS011;57514;52.164;5.282;2022-10-22T07:08:10;12.30;;;4.10;;
70148;SDS011;57514;52.164;5.282;2022-10-22T07:10:37;13.02;;;3.85;;
70148;SDS011;57514;52.164;5.282;2022-10-22T07:13:04;8.93;;;3.17;;
70148;SDS011;57514;52.164;5.282;2022-10-22T07:15:31;10.75;;;3.42;;
70148;SDS011;57514;52.164;5.282;2022-10-22T07:17:58;15.32;;;4.32;;
70148;SDS011;57514;52.164;5.282;2022-10-22T07:20:25;11.23;;;3.38;;
70148;SDS011;57514;52.164;5.282;2022-10-22T07:22:52;9.75;;;3.08;;
70148;SDS011;57514;52.164;5.282;2022-10-22T07:25:20;10.57;;;3.30;;
70148;SDS011;57514;52.164;5.282;2022-10-22T07:27:47;7.10;;;2.28;;
70148;SDS011;57514;52.164;5.282;2022-10-22T07:30:14;10.02;;;3.65;;
70148;SDS011;57514;52.164;5.282;2022-10-22T07:32:41;9.95;;;3.55;;
70148;SDS011;57514;52.164;5.282;2022-10-22T07:35:08;10.23;;;2.80;;
70148;SDS011;57514;52.164;5.282;2022-10-22T07:37:35;10.88;;;2.75;;
70148;SDS011;57514;52.164;5.282;2022-10-22T07:40:03;9.57;;;3.28;;
70148;SDS011;57514;52.164;5.282;2022-10-22T07:42:30;13.23;;;3.38;;
70148;SDS011;57514;52.164;5.282;2022-10-22T07:44:57;15.45;;;3.28;;
70148;SDS011;57514;52.164;5.282;2022-10-22T07:47:25;8.18;;;3.15;;
70148;SDS011;57514;52.164;5.282;2022-10-22T07:49:52;6.93;;;2.47;;
70148;SDS011;57514;52.164;5.282;2022-10-22T07:52:19;9.02;;;2.92;;
70148;SDS011;57514;52.164;5.282;2022-10-22T07:54:46;12.35;;;3.20;;
70148;SDS011;57514;52.164;5.282;2022-10-22T07:57:22;9.48;;;2.90;;
70148;SDS011;57514;52.164;5.282;2022-10-22T07:59:49;17.13;;;3.40;;
70148;SDS011;57514;52.164;5.282;2022-10-22T08:02:16;10.23;;;3.35;;
70148;SDS011;57514;52.164;5.282;2022-10-22T08:04:43;11.27;;;3.55;;
70148;SDS011;57514;52.164;5.282;2022-10-22T08:07:10;13.85;;;3.60;;
70148;SDS011;57514;52.164;5.282;2022-10-22T08:09:37;11.15;;;3.38;;
70148;SDS011;57514;52.164;5.282;2022-10-22T08:12:05;8.85;;;2.40;;
70148;SDS011;57514;52.164;5.282;2022-10-22T08:14:32;10.35;;;3.25;;
70148;SDS011;57514;52.164;5.282;2022-10-22T08:16:59;9.88;;;2.08;;
70148;SDS011;57514;52.164;5.282;2022-10-22T08:19:26;8.95;;;3.22;;
70148;SDS011;57514;52.164;5.282;2022-10-22T08:21:54;11.85;;;3.58;;
70148;SDS011;57514;52.164;5.282;2022-10-22T08:24:22;16.05;;;2.90;;
70148;SDS011;57514;52.164;5.282;2022-10-22T08:26:49;11.70;;;3.35;;
70148;SDS011;57514;52.164;5.282;2022-10-22T08:29:17;7.57;;;2.35;;
70148;SDS011;57514;52.164;5.282;2022-10-22T08:31:44;7.10;;;2.63;;
70148;SDS011;57514;52.164;5.282;2022-10-22T08:34:11;7.70;;;2.58;;
70148;SDS011;57514;52.164;5.282;2022-10-22T08:36:38;12.10;;;3.08;;
70148;SDS011;57514;52.164;5.282;2022-10-22T08:39:06;14.25;;;2.90;;
70148;SDS011;57514;52.164;5.282;2022-10-22T08:46:48;7.50;;;2.15;;
70148;SDS011;57514;52.164;5.282;2022-10-22T08:49:22;12.90;;;3.10;;
70148;SDS011;57514;52.164;5.282;2022-10-22T08:51:50;9.75;;;3.13;;
70148;SDS011;57514;52.164;5.282;2022-10-22T08:54:20;13.35;;;2.75;;
70148;SDS011;57514;52.164;5.282;2022-10-22T08:57:09;11.50;;;3.22;;
70148;SDS011;57514;52.164;5.282;2022-10-22T08:59:45;8.23;;;2.17;;
70148;SDS011;57514;52.164;5.282;2022-10-22T09:02:19;7.15;;;2.42;;
70148;SDS011;57514;52.164;5.282;2022-10-22T09:04:50;6.90;;;1.83;;
70148;SDS011;57514;52.164;5.282;2022-10-22T09:07:19;10.25;;;3.10;;
70148;SDS011;57514;52.164;5.282;2022-10-22T09:09:48;12.80;;;2.63;;
70148;SDS011;57514;52.164;5.282;2022-10-22T09:12:16;7.55;;;2.47;;
70148;SDS011;57514;52.164;5.282;2022-10-22T09:14:45;11.48;;;2.90;;
70148;SDS011;57514;52.164;5.282;2022-10-22T09:17:20;9.57;;;2.97;;
70148;SDS011;57514;52.164;5.282;2022-10-22T09:19:56;10.52;;;2.70;;
70148;SDS011;57514;52.164;5.282;2022-10-22T09:22:33;9.10;;;2.35;;
70148;SDS011;57514;52.164;5.282;2022-10-22T09:30:17;14.55;;;3.10;;
70148;SDS011;57514;52.164;5.282;2022-10-22T09:32:46;11.07;;;2.35;;
70148;SDS011;57514;52.164;5.282;2022-10-22T09:35:14;10.98;;;2.33;;
70148;SDS011;57514;52.164;5.282;2022-10-22T09:37:52;10.73;;;2.15;;
70148;SDS011;57514;52.164;5.282;2022-10-22T09:40:21;7.60;;;2.05;;
70148;SDS011;57514;52.164;5.282;2022-10-22T09:42:48;6.05;;;2.25;;
70148;SDS011;57514;52.164;5.282;2022-10-22T09:45:25;7.82;;;2.63;;
70148;SDS011;57514;52.164;5.282;2022-10-22T09:50:28;11.82;;;3.15;;
70148;SDS011;57514;52.164;5.282;2022-10-22T09:53:03;9.93;;;2.25;;
70148;SDS011;57514;52.164;5.282;2022-10-22T09:55:30;10.20;;;2.60;;
70148;SDS011;57514;52.164;5.282;2022-10-22T09:57:58;10.35;;;2.47;;
70148;SDS011;57514;52.164;5.282;2022-10-22T10:00:26;8.18;;;1.92;;
70148;SDS011;57514;52.164;5.282;2022-10-22T10:02:54;12.05;;;2.88;;
70148;SDS011;57514;52.164;5.282;2022-10-22T10:05:27;5.13;;;2.28;;
70148;SDS011;57514;52.164;5.282;2022-10-22T10:07:55;8.38;;;2.08;;
70148;SDS011;57514;52.164;5.282;2022-10-22T10:10:26;8.70;;;2.78;;
70148;SDS011;57514;52.164;5.282;2022-10-22T10:12:56;8.23;;;2.08;;
70148;SDS011;57514;52.164;5.282;2022-10-22T10:21:20;7.90;;;1.98;;
70148;SDS011;57514;52.164;5.282;2022-10-22T10:26:29;9.52;;;2.10;;
70148;SDS011;57514;52.164;5.282;2022-10-22T10:34:30;8.00;;;1.98;;
70148;SDS011;57514;52.164;5.282;2022-10-22T10:37:12;9.00;;;2.15;;
70148;SDS011;57514;52.164;5.282;2022-10-22T10:42:32;7.60;;;2.33;;
70148;SDS011;57514;52.164;5.282;2022-10-22T10:58:47;7.75;;;1.90;;
70148;SDS011;57514;52.164;5.282;2022-10-22T11:04:12;6.88;;;1.98;;
70148;SDS011;57514;52.164;5.282;2022-10-22T11:07:00;11.23;;;2.38;;
70148;SDS011;57514;52.164;5.282;2022-10-22T11:09:52;9.13;;;2.47;;
70148;SDS011;57514;52.164;5.282;2022-10-22T11:12:29;7.60;;;2.00;;
70148;SDS011;57514;52.164;5.282;2022-10-22T11:15:11;8.43;;;1.85;;
70148;SDS011;57514;52.164;5.282;2022-10-22T11:17:50;11.57;;;2.15;;
70148;SDS011;57514;52.164;5.282;2022-10-22T11:20:29;9.60;;;2.15;;
70148;SDS011;57514;52.164;5.282;2022-10-22T11:23:40;9.90;;;1.98;;
70148;SDS011;57514;52.164;5.282;2022-10-22T11:26:36;7.53;;;1.73;;
70148;SDS011;57514;52.164;5.282;2022-10-22T11:29:16;4.70;;;1.35;;
70148;SDS011;57514;52.164;5.282;2022-10-22T11:31:48;7.95;;;1.80;;
70148;SDS011;57514;52.164;5.282;2022-10-22T11:34:26;9.95;;;2.28;;
70148;SDS011;57514;52.164;5.282;2022-10-22T11:37:00;4.15;;;1.80;;
70148;SDS011;57514;52.164;5.282;2022-10-22T11:39:39;7.93;;;2.10;;
70148;SDS011;57514;52.164;5.282;2022-10-22T11:42:18;10.48;;;2.42;;
70148;SDS011;57514;52.164;5.282;2022-10-22T11:45:00;8.18;;;2.08;;
70148;SDS011;57514;52.164;5.282;2022-10-22T11:47:32;12.27;;;1.88;;
70148;SDS011;57514;52.164;5.282;2022-10-22T11:50:15;9.60;;;2.30;;
70148;SDS011;57514;52.164;5.282;2022-10-22T11:53:33;8.40;;;2.20;;
70148;SDS011;57514;52.164;5.282;2022-10-22T12:08:55;8.82;;;1.88;;
70148;SDS011;57514;52.164;5.282;2022-10-22T12:11:40;11.00;;;2.05;;
70148;SDS011;57514;52.164;5.282;2022-10-22T12:16:42;9.70;;;2.25;;
70148;SDS011;57514;52.164;5.282;2022-10-22T12:22:32;12.90;;;2.67;;
70148;SDS011;57514;52.164;5.282;2022-10-22T12:24:43;9.98;;;2.55;;
70148;SDS011;57514;52.164;5.282;2022-10-22T12:27:16;12.07;;;2.13;;
70148;SDS011;57514;52.164;5.282;2022-10-22T12:29:52;10.27;;;2.47;;
70148;SDS011;57514;52.164;5.282;2022-10-22T12:32:20;13.50;;;2.00;;
70148;SDS011;57514;52.164;5.282;2022-10-22T12:34:49;27.75;;;10.25;;
70148;SDS011;57514;52.164;5.282;2022-10-22T12:37:18;13.90;;;3.50;;
70148;SDS011;57514;52.164;5.282;2022-10-22T12:39:45;18.85;;;3.90;;
70148;SDS011;57514;52.164;5.282;2022-10-22T12:42:14;11.05;;;2.20;;
70148;SDS011;57514;52.164;5.282;2022-10-22T12:44:42;7.40;;;1.27;;
70148;SDS011;57514;52.164;5.282;2022-10-22T12:47:12;13.55;;;2.00;;
70148;SDS011;57514;52.164;5.282;2022-10-22T12:49:43;13.20;;;2.03;;
70148;SDS011;57514;52.164;5.282;2022-10-22T12:52:14;13.95;;;2.53;;
70148;SDS011;57514;52.164;5.282;2022-10-22T12:54:45;13.10;;;2.10;;
70148;SDS011;57514;52.164;5.282;2022-10-22T12:57:15;15.35;;;2.53;;
70148;SDS011;57514;52.164;5.282;2022-10-22T12:59:45;10.70;;;2.40;;
70148;SDS011;57514;52.164;5.282;2022-10-22T13:05:03;12.73;;;2.42;;
70148;SDS011;57514;52.164;5.282;2022-10-22T13:07:54;10.25;;;1.77;;
70148;SDS011;57514;52.164;5.282;2022-10-22T13:10:35;9.93;;;1.80;;
70148;SDS011;57514;52.164;5.282;2022-10-22T13:13:03;10.00;;;1.80;;
70148;SDS011;57514;52.164;5.282;2022-10-22T13:15:35;13.88;;;2.38;;
70148;SDS011;57514;52.164;5.282;2022-10-22T13:18:04;12.63;;;2.67;;
70148;SDS011;57514;52.164;5.282;2022-10-22T13:20:57;16.48;;;2.30;;
70148;SDS011;57514;52.164;5.282;2022-10-22T13:23:30;10.25;;;2.00;;
70148;SDS011;57514;52.164;5.282;2022-10-22T13:26:02;11.27;;;2.58;;
70148;SDS011;57514;52.164;5.282;2022-10-22T13:28:37;10.30;;;2.00;;
70148;SDS011;57514;52.164;5.282;2022-10-22T13:31:08;11.77;;;2.72;;
70148;SDS011;57514;52.164;5.282;2022-10-22T13:36:11;11.00;;;2.47;;
70148;SDS011;57514;52.164;5.282;2022-10-22T13:38:39;7.90;;;2.80;;
70148;SDS011;57514;52.164;5.282;2022-10-22T13:44:08;13.65;;;2.47;;
70148;SDS011;57514;52.164;5.282;2022-10-22T13:46:35;11.88;;;3.45;;
70148;SDS011;57514;52.164;5.282;2022-10-22T13:49:14;14.73;;;3.35;;
70148;SDS011;57514;52.164;5.282;2022-10-22T13:51:43;12.32;;;3.05;;
70148;SDS011;57514;52.164;5.282;2022-10-22T13:54:13;16.65;;;3.38;;
70148;SDS011;57514;52.164;5.282;2022-10-22T13:56:45;8.55;;;3.03;;
70148;SDS011;57514;52.164;5.282;2022-10-22T13:59:12;14.25;;;2.72;;
70148;SDS011;57514;52.164;5.282;2022-10-22T14:01:43;14.95;;;2.78;;
70148;SDS011;57514;52.164;5.282;2022-10-22T14:04:12;14.15;;;2.88;;
70148;SDS011;57514;52.164;5.282;2022-10-22T14:06:40;11.60;;;2.70;;
70148;SDS011;57514;52.164;5.282;2022-10-22T14:09:10;11.13;;;2.90;;
70148;SDS011;57514;52.164;5.282;2022-10-22T14:11:40;15.95;;;2.83;;
70148;SDS011;57514;52.164;5.282;2022-10-22T14:14:08;10.85;;;2.70;;
70148;SDS011;57514;52.164;5.282;2022-10-22T14:16:45;11.57;;;2.58;;
70148;SDS011;57514;52.164;5.282;2022-10-22T14:19:30;16.98;;;3.20;;
70148;SDS011;57514;52.164;5.282;2022-10-22T14:21:57;9.65;;;3.15;;
70148;SDS011;57514;52.164;5.282;2022-10-22T14:24:24;15.35;;;3.70;;
70148;SDS011;57514;52.164;5.282;2022-10-22T14:26:51;10.55;;;2.58;;
70148;SDS011;57514;52.164;5.282;2022-10-22T14:29:18;9.60;;;2.53;;
70148;SDS011;57514;52.164;5.282;2022-10-22T14:31:45;10.77;;;2.10;;
70148;SDS011;57514;52.164;5.282;2022-10-22T14:34:14;11.85;;;2.70;;
70148;SDS011;57514;52.164;5.282;2022-10-22T14:36:42;12.02;;;2.47;;
70148;SDS011;57514;52.164;5.282;2022-10-22T14:39:09;10.98;;;2.80;;
70148;SDS011;57514;52.164;5.282;2022-10-22T14:41:37;10.25;;;2.55;;
70148;SDS011;57514;52.164;5.282;2022-10-22T14:44:04;7.15;;;2.40;;
70148;SDS011;57514;52.164;5.282;2022-10-22T14:46:31;9.43;;;2.45;;
70148;SDS011;57514;52.164;5.282;2022-10-22T14:48:58;13.38;;;2.97;;
70148;SDS011;57514;52.164;5.282;2022-10-22T14:51:26;11.40;;;2.53;;
70148;SDS011;57514;52.164;5.282;2022-10-22T14:53:53;12.98;;;2.45;;
70148;SDS011;57514;52.164;5.282;2022-10-22T14:56:20;10.80;;;3.28;;
70148;SDS011;57514;52.164;5.282;2022-10-22T14:58:47;14.13;;;2.67;;
70148;SDS011;57514;52.164;5.282;2022-10-22T15:01:15;13.02;;;2.30;;
70148;SDS011;57514;52.164;5.282;2022-10-22T15:03:42;10.75;;;3.10;;
70148;SDS011;57514;52.164;5.282;2022-10-22T15:06:09;11.38;;;2.72;;
70148;SDS011;57514;52.164;5.282;2022-10-22T15:08:36;11.43;;;2.85;;
70148;SDS011;57514;52.164;5.282;2022-10-22T15:11:05;11.77;;;3.22;;
70148;SDS011;57514;52.164;5.282;2022-10-22T15:13:35;14.35;;;3.00;;
70148;SDS011;57514;52.164;5.282;2022-10-22T15:16:06;12.35;;;2.88;;
70148;SDS011;57514;52.164;5.282;2022-10-22T15:18:34;13.63;;;2.50;;
70148;SDS011;57514;52.164;5.282;2022-10-22T15:21:03;14.77;;;2.70;;
70148;SDS011;57514;52.164;5.282;2022-10-22T15:23:31;11.65;;;2.67;;
70148;SDS011;57514;52.164;5.282;2022-10-22T15:25:59;10.00;;;2.40;;
70148;SDS011;57514;52.164;5.282;2022-10-22T15:28:26;14.07;;;2.63;;
70148;SDS011;57514;52.164;5.282;2022-10-22T15:30:56;12.82;;;2.47;;
70148;SDS011;57514;52.164;5.282;2022-10-22T15:33:24;10.75;;;2.90;;
70148;SDS011;57514;52.164;5.282;2022-10-22T15:35:55;9.40;;;2.15;;
70148;SDS011;57514;52.164;5.282;2022-10-22T15:38:26;12.55;;;2.72;;
70148;SDS011;57514;52.164;5.282;2022-10-22T15:41:02;10.68;;;3.25;;
70148;SDS011;57514;52.164;5.282;2022-10-22T15:46:32;16.13;;;4.00;;
70148;SDS011;57514;52.164;5.282;2022-10-22T15:48:58;15.60;;;4.00;;
70148;SDS011;57514;52.164;5.282;2022-10-22T15:51:25;17.02;;;4.50;;
70148;SDS011;57514;52.164;5.282;2022-10-22T15:53:56;13.13;;;4.13;;
70148;SDS011;57514;52.164;5.282;2022-10-22T15:56:24;15.38;;;3.58;;
70148;SDS011;57514;52.164;5.282;2022-10-22T15:58:54;14.93;;;3.17;;
70148;SDS011;57514;52.164;5.282;2022-10-22T16:01:22;13.82;;;3.63;;
70148;SDS011;57514;52.164;5.282;2022-10-22T16:03:50;11.65;;;2.55;;
70148;SDS011;57514;52.164;5.282;2022-10-22T16:06:25;11.82;;;3.00;;
70148;SDS011;57514;52.164;5.282;2022-10-22T16:08:53;12.95;;;2.95;;
70148;SDS011;57514;52.164;5.282;2022-10-22T16:11:22;12.27;;;3.17;;
70148;SDS011;57514;52.164;5.282;2022-10-22T16:13:55;12.95;;;3.63;;
70148;SDS011;57514;52.164;5.282;2022-10-22T16:16:25;11.32;;;2.80;;
70148;SDS011;57514;52.164;5.282;2022-10-22T16:18:53;12.70;;;2.85;;
70148;SDS011;57514;52.164;5.282;2022-10-22T16:21:20;11.40;;;3.00;;
70148;SDS011;57514;52.164;5.282;2022-10-22T16:23:48;12.70;;;3.00;;
70148;SDS011;57514;52.164;5.282;2022-10-22T16:26:16;12.68;;;3.40;;
70148;SDS011;57514;52.164;5.282;2022-10-22T16:28:43;15.18;;;6.00;;
70148;SDS011;57514;52.164;5.282;2022-10-22T16:31:14;14.95;;;6.05;;
70148;SDS011;57514;52.164;5.282;2022-10-22T16:33:42;21.98;;;5.68;;
70148;SDS011;57514;52.164;5.282;2022-10-22T16:36:15;19.33;;;6.70;;